Time;durP1;ratioP1;P1;durP2;ratioP2;P2;SDS_P1;SDS_P2;PMS_P1;PMS_P2;Temp;Humidity;BMP_temperature;BMP_pressure;BME280_temperature;BME280_humidity;BME280_pressure;Samples;Min_cycle;Max_cycle;Signal;HPM_P1;HPM_P2
2021/12/21 00:00:20;;;;;;;9.67;6.80;;;2.60;99.90;;;;;;5079841;28;20201;-52
2021/12/21 00:02:48;;;;;;;8.85;6.97;;;2.60;99.90;;;;;;5067478;28;20193;-49
2021/12/21 00:05:19;;;;;;;14.10;6.90;;;2.60;99.90;;;;;;5075205;28;20186;-49
2021/12/21 00:07:46;;;;;;;10.68;7.35;;;2.60;99.90;;;;;;5080659;28;20193;-48
2021/12/21 00:10:13;;;;;;;13.93;6.65;;;2.60;99.90;;;;;;5079433;28;20195;-51
2021/12/21 00:12:48;;;;;;;9.02;6.30;;;2.60;99.90;;;;;;5077147;28;20288;-51
2021/12/21 00:15:25;;;;;;;10.20;7.50;;;2.60;99.90;;;;;;5072377;28;20282;-52
2021/12/21 00:25:22;;;;;;;10.13;7.15;;;2.60;99.90;;;;;;5072283;28;20780;-54
2021/12/21 00:27:50;;;;;;;8.57;6.53;;;2.50;99.90;;;;;;5072962;28;20574;-52
2021/12/21 00:30:16;;;;;;;9.75;6.68;;;2.50;99.90;;;;;;5078632;28;20177;-50
2021/12/21 00:32:42;;;;;;;6.90;6.10;;;2.40;99.90;;;;;;5079214;28;20250;-53
2021/12/21 00:35:08;;;;;;;10.47;6.77;;;2.40;99.90;;;;;;5073446;28;20317;-53
2021/12/21 00:37:36;;;;;;;11.05;7.40;;;2.40;99.90;;;;;;5075654;28;20440;-50
2021/12/21 00:40:03;;;;;;;9.32;7.25;;;2.40;99.90;;;;;;5077568;28;20188;-51
2021/12/21 00:42:28;;;;;;;8.70;7.28;;;2.30;99.90;;;;;;5081363;28;20227;-54
2021/12/21 00:44:54;;;;;;;10.37;7.20;;;2.30;99.90;;;;;;5075734;28;20209;-55
2021/12/21 00:47:19;;;;;;;9.83;7.07;;;2.40;99.90;;;;;;5080382;28;20546;-56
2021/12/21 00:49:46;;;;;;;11.30;7.30;;;2.40;99.90;;;;;;5070926;28;20182;-53
2021/12/21 00:52:13;;;;;;;9.35;6.63;;;2.40;99.90;;;;;;5073076;28;20205;-51
2021/12/21 00:54:40;;;;;;;11.20;7.22;;;2.40;99.90;;;;;;5078910;28;20395;-51
2021/12/21 00:57:06;;;;;;;10.05;7.07;;;2.50;99.90;;;;;;5077003;28;20192;-52
2021/12/21 00:59:32;;;;;;;9.47;7.60;;;2.50;99.90;;;;;;5072867;28;20182;-53
2021/12/21 01:01:58;;;;;;;10.95;7.63;;;2.50;99.90;;;;;;5068034;28;20347;-48
2021/12/21 01:04:30;;;;;;;9.30;7.78;;;2.50;99.90;;;;;;5074829;28;20186;-52
2021/12/21 01:07:05;;;;;;;10.50;7.43;;;2.50;99.90;;;;;;5071376;28;20181;-53
2021/12/21 01:12:11;;;;;;;12.27;8.05;;;2.50;99.90;;;;;;5083776;28;20200;-50
2021/12/21 01:19:48;;;;;;;12.20;7.93;;;2.50;99.90;;;;;;5067233;28;20185;-54
2021/12/21 01:25:24;;;;;;;13.60;9.50;;;2.60;99.90;;;;;;5072402;28;20200;-54
2021/12/21 01:32:57;;;;;;;12.20;9.50;;;2.60;99.90;;;;;;5075955;28;20547;-56
2021/12/21 01:35:37;;;;;;;13.02;9.52;;;2.70;99.90;;;;;;5068545;28;20261;-53
2021/12/21 01:38:25;;;;;;;14.48;10.30;;;2.70;99.90;;;;;;5069205;28;20186;-55
2021/12/21 01:40:59;;;;;;;15.85;10.73;;;2.60;99.90;;;;;;5076817;28;20173;-52
2021/12/21 01:43:41;;;;;;;15.57;10.75;;;2.60;99.90;;;;;;5087491;28;20600;-49
2021/12/21 01:51:36;;;;;;;20.30;11.45;;;2.70;99.90;;;;;;5074907;28;20695;-53
2021/12/21 01:54:02;;;;;;;16.58;11.50;;;2.70;99.90;;;;;;5071675;28;20182;-50
2021/12/21 01:56:28;;;;;;;17.52;12.38;;;2.70;99.90;;;;;;5076658;28;20234;-52
2021/12/21 01:58:54;;;;;;;21.40;11.80;;;2.70;99.90;;;;;;5075240;28;20651;-54
2021/12/21 02:01:24;;;;;;;16.73;11.35;;;2.80;99.90;;;;;;5069728;28;20247;-48
2021/12/21 02:03:50;;;;;;;20.50;11.30;;;2.70;99.90;;;;;;5065591;28;20317;-49
2021/12/21 02:06:18;;;;;;;15.32;11.43;;;2.70;99.90;;;;;;5058262;28;20542;-50
2021/12/21 02:08:44;;;;;;;15.77;11.20;;;2.60;99.90;;;;;;5059603;28;20541;-52
2021/12/21 02:11:10;;;;;;;16.20;11.83;;;2.50;99.90;;;;;;5076252;28;20227;-48
2021/12/21 02:13:37;;;;;;;15.82;11.95;;;2.50;99.90;;;;;;5068413;28;20628;-49
2021/12/21 02:16:04;;;;;;;16.52;11.55;;;2.40;99.90;;;;;;5079435;28;20181;-51
2021/12/21 02:18:44;;;;;;;16.15;11.40;;;2.50;99.90;;;;;;5069904;28;20225;-51
2021/12/21 02:21:21;;;;;;;18.25;12.18;;;2.50;99.90;;;;;;5068210;28;21032;-50
2021/12/21 02:23:49;;;;;;;18.23;12.48;;;2.50;99.90;;;;;;5074207;28;20181;-50
2021/12/21 02:31:09;;;;;;;18.40;11.67;;;2.60;99.90;;;;;;5071023;28;20272;-52
2021/12/21 02:33:36;;;;;;;16.87;12.30;;;2.50;99.90;;;;;;5078839;28;20448;-50
2021/12/21 02:36:02;;;;;;;19.38;12.25;;;2.50;99.90;;;;;;5076269;28;20800;-51
2021/12/21 02:38:28;;;;;;;15.70;11.40;;;2.50;99.90;;;;;;5071427;28;20181;-52
2021/12/21 02:40:55;;;;;;;17.02;12.57;;;2.60;99.90;;;;;;5062537;28;21303;-48
2021/12/21 02:43:21;;;;;;;17.58;12.20;;;2.60;99.90;;;;;;5076636;28;20182;-52
2021/12/21 02:45:47;;;;;;;16.98;11.57;;;2.60;99.90;;;;;;5083472;28;20188;-48
2021/12/21 02:48:13;;;;;;;14.63;11.20;;;2.60;99.90;;;;;;5074879;28;20661;-49
2021/12/21 02:50:39;;;;;;;18.70;12.07;;;2.70;99.90;;;;;;5071534;28;20476;-51
2021/12/21 02:53:07;;;;;;;16.60;13.15;;;2.70;99.90;;;;;;5056585;28;20797;-50
2021/12/21 02:55:32;;;;;;;18.05;12.35;;;2.60;99.90;;;;;;5071355;28;20182;-51
2021/12/21 02:57:58;;;;;;;20.30;13.63;;;2.60;99.90;;;;;;5070051;28;20263;-52
2021/12/21 03:00:28;;;;;;;19.13;12.80;;;2.70;99.90;;;;;;5071787;28;20257;-54
2021/12/21 03:02:55;;;;;;;15.52;12.10;;;2.70;99.90;;;;;;5078340;28;20193;-50
2021/12/21 03:05:21;;;;;;;19.77;12.65;;;2.70;99.90;;;;;;5066563;28;20178;-52
2021/12/21 03:10:28;;;;;;;16.45;11.95;;;2.80;99.90;;;;;;5078990;28;20807;-52
2021/12/21 03:15:38;;;;;;;19.05;12.95;;;2.80;99.90;;;;;;5070280;28;20184;-52
2021/12/21 03:18:03;;;;;;;18.97;13.10;;;2.80;99.90;;;;;;5058528;28;20703;-54
2021/12/21 03:20:29;;;;;;;16.97;12.30;;;2.80;99.90;;;;;;5060942;28;20208;-47
2021/12/21 03:22:55;;;;;;;17.37;12.23;;;2.70;99.90;;;;;;5054922;28;20624;-52
2021/12/21 03:25:21;;;;;;;18.70;11.20;;;2.70;99.90;;;;;;5065423;28;20437;-51
2021/12/21 03:27:46;;;;;;;23.07;12.50;;;2.70;99.90;;;;;;5050030;28;20204;-55
2021/12/21 03:30:15;;;;;;;19.87;12.10;;;2.60;99.90;;;;;;5060556;28;20191;-52
2021/12/21 03:32:41;;;;;;;17.30;12.48;;;2.60;99.90;;;;;;5056708;28;20185;-53
2021/12/21 03:35:08;;;;;;;18.83;12.50;;;2.60;99.90;;;;;;5049261;28;20220;-49
2021/12/21 03:37:34;;;;;;;18.13;13.32;;;2.60;99.90;;;;;;5052109;28;20186;-51
2021/12/21 03:40:02;;;;;;;15.57;12.00;;;2.60;99.90;;;;;;5053261;28;20687;-50
2021/12/21 03:42:28;;;;;;;17.58;12.52;;;2.60;99.90;;;;;;5037856;28;20189;-50
2021/12/21 03:44:53;;;;;;;17.87;12.67;;;2.60;99.90;;;;;;5054316;28;20194;-54
2021/12/21 03:47:22;;;;;;;16.13;11.60;;;2.60;99.90;;;;;;5061777;28;20632;-49
2021/12/21 03:49:54;;;;;;;18.58;12.40;;;2.70;99.90;;;;;;5059041;28;20273;-50
2021/12/21 03:52:22;;;;;;;18.35;12.23;;;2.80;99.90;;;;;;5044755;28;20228;-49
2021/12/21 03:54:52;;;;;;;19.55;13.15;;;2.70;99.90;;;;;;5036609;28;20199;-50
2021/12/21 03:57:19;;;;;;;19.50;13.10;;;2.70;99.90;;;;;;5052893;28;20178;-52
2021/12/21 03:59:45;;;;;;;18.30;12.23;;;2.70;99.90;;;;;;5064625;28;20651;-48
2021/12/21 04:02:12;;;;;;;19.73;12.60;;;2.70;99.90;;;;;;5055609;28;20265;-50
2021/12/21 04:04:39;;;;;;;18.13;12.38;;;2.70;99.90;;;;;;5049064;28;20273;-47
2021/12/21 04:07:05;;;;;;;19.58;13.05;;;2.70;99.90;;;;;;5057606;28;20182;-50
2021/12/21 04:09:30;;;;;;;20.25;13.32;;;2.70;99.90;;;;;;5057845;28;20178;-51
2021/12/21 04:11:56;;;;;;;19.90;13.83;;;2.70;99.90;;;;;;5052717;28;20782;-53
2021/12/21 04:14:22;;;;;;;17.37;12.80;;;2.60;99.90;;;;;;5059989;28;20184;-52
2021/12/21 04:16:48;;;;;;;17.20;12.70;;;2.70;99.90;;;;;;5056338;28;20262;-51
2021/12/21 04:19:13;;;;;;;18.17;13.30;;;2.70;99.90;;;;;;5051867;28;20182;-50
2021/12/21 04:21:40;;;;;;;17.10;12.83;;;2.70;99.90;;;;;;5051449;28;20435;-50
2021/12/21 04:24:06;;;;;;;17.98;13.18;;;2.70;99.90;;;;;;5057659;28;20194;-51
2021/12/21 04:26:32;;;;;;;19.90;12.95;;;2.60;99.90;;;;;;5051903;28;20266;-51
2021/12/21 04:28:58;;;;;;;19.53;13.37;;;2.60;99.90;;;;;;5057334;28;20269;-53
2021/12/21 04:31:24;;;;;;;18.40;13.47;;;2.70;99.90;;;;;;5048989;28;20209;-51
2021/12/21 04:33:49;;;;;;;21.60;12.87;;;2.60;99.90;;;;;;5055142;28;21270;-52
2021/12/21 04:36:15;;;;;;;19.77;13.73;;;2.60;99.90;;;;;;5048486;28;20523;-53
2021/12/21 04:38:45;;;;;;;19.05;12.85;;;2.70;99.90;;;;;;5061498;28;20612;-51
2021/12/21 04:41:16;;;;;;;18.83;13.20;;;2.70;99.90;;;;;;5051348;28;21012;-52
2021/12/21 04:43:43;;;;;;;19.33;13.25;;;2.70;99.90;;;;;;5053507;28;20933;-48
2021/12/21 04:46:09;;;;;;;20.00;13.50;;;2.80;99.90;;;;;;5054288;28;20193;-54
2021/12/21 04:48:36;;;;;;;19.83;14.45;;;2.80;99.90;;;;;;5055126;28;20247;-50
2021/12/21 04:51:02;;;;;;;22.77;13.40;;;2.70;99.90;;;;;;5047858;28;20301;-55
2021/12/21 04:53:28;;;;;;;20.52;13.20;;;2.80;99.90;;;;;;5050917;28;20178;-53
2021/12/21 04:55:53;;;;;;;19.07;13.27;;;2.80;99.90;;;;;;5060219;28;20204;-49
2021/12/21 04:58:20;;;;;;;21.30;13.20;;;2.80;99.90;;;;;;5054433;28;20200;-49
2021/12/21 05:00:47;;;;;;;20.05;13.15;;;2.80;99.90;;;;;;5055815;28;20190;-51
2021/12/21 05:03:13;;;;;;;16.50;11.73;;;2.90;99.90;;;;;;5055269;28;20225;-51
2021/12/21 05:05:39;;;;;;;18.17;12.75;;;2.90;99.90;;;;;;5056311;28;20506;-53
2021/12/21 05:08:10;;;;;;;19.65;13.55;;;2.80;99.90;;;;;;5038695;28;20196;-54
2021/12/21 05:10:46;;;;;;;18.38;13.10;;;2.80;99.90;;;;;;5037991;28;20254;-53
2021/12/21 05:13:13;;;;;;;22.25;14.77;;;2.80;99.90;;;;;;5037532;28;20170;-54
2021/12/21 05:15:38;;;;;;;21.17;13.10;;;2.80;99.90;;;;;;5037781;28;20689;-50
2021/12/21 05:18:04;;;;;;;18.57;13.07;;;2.80;99.90;;;;;;5036888;28;20222;-50
2021/12/21 05:20:29;;;;;;;21.10;13.27;;;2.80;99.90;;;;;;5038402;28;20261;-51
2021/12/21 05:22:55;;;;;;;19.80;13.60;;;2.80;99.90;;;;;;5039768;28;20191;-55
2021/12/21 05:25:20;;;;;;;24.40;14.10;;;2.80;99.90;;;;;;5039618;28;20190;-54
2021/12/21 05:27:46;;;;;;;20.63;13.07;;;2.80;99.90;;;;;;5039420;28;20174;-54
2021/12/21 05:30:13;;;;;;;19.03;13.50;;;2.80;99.90;;;;;;5039391;28;20183;-52
2021/12/21 05:32:39;;;;;;;24.08;13.73;;;2.80;99.90;;;;;;5022276;28;20197;-54
2021/12/21 05:35:05;;;;;;;18.77;12.97;;;2.80;99.90;;;;;;5039821;28;20190;-50
2021/12/21 05:37:31;;;;;;;23.10;13.45;;;2.80;99.90;;;;;;5045424;28;20517;-53
2021/12/21 05:40:08;;;;;;;21.90;14.20;;;2.80;99.90;;;;;;5056168;28;20193;-50
2021/12/21 05:42:34;;;;;;;21.48;13.68;;;2.70;99.90;;;;;;5046423;28;20440;-51
2021/12/21 05:44:59;;;;;;;27.00;14.47;;;2.80;99.90;;;;;;5050223;28;20185;-48
2021/12/21 05:47:25;;;;;;;19.60;13.50;;;2.80;99.90;;;;;;5057996;28;20181;-52
2021/12/21 05:49:50;;;;;;;19.23;13.37;;;2.80;99.90;;;;;;5048877;28;20178;-51
2021/12/21 05:52:16;;;;;;;19.60;12.97;;;2.80;99.90;;;;;;5051345;28;20992;-53
2021/12/21 05:54:41;;;;;;;20.07;13.27;;;2.80;99.90;;;;;;5060967;28;20178;-51
2021/12/21 05:57:07;;;;;;;19.77;14.37;;;2.80;99.90;;;;;;5058656;28;20671;-51
2021/12/21 05:59:33;;;;;;;20.07;13.93;;;2.80;99.90;;;;;;5052568;28;20598;-52
2021/12/21 06:01:58;;;;;;;22.27;13.23;;;2.80;99.90;;;;;;5055218;28;20185;-52
2021/12/21 06:04:25;;;;;;;20.53;13.07;;;2.80;99.90;;;;;;5055006;28;20569;-53
2021/12/21 06:06:51;;;;;;;20.40;14.35;;;2.80;99.90;;;;;;5052664;28;20231;-49
2021/12/21 06:09:16;;;;;;;19.20;12.97;;;2.80;99.90;;;;;;5054815;28;20197;-50
2021/12/21 06:11:48;;;;;;;19.97;14.63;;;2.80;99.90;;;;;;5047251;28;20475;-52
2021/12/21 06:14:37;;;;;;;17.08;12.10;;;2.80;99.90;;;;;;5044292;28;20242;-53
2021/12/21 06:23:01;;;;;;;19.67;12.95;;;2.70;99.90;;;;;;4984570;28;20777;-49
2021/12/21 06:25:38;;;;;;;21.05;13.13;;;2.70;99.90;;;;;;4984531;28;20283;-52
2021/12/21 06:28:06;;;;;;;18.40;14.00;;;2.70;99.90;;;;;;5034552;28;20220;-52
2021/12/21 06:30:33;;;;;;;18.80;13.48;;;2.70;99.90;;;;;;5050244;28;20186;-49
2021/12/21 06:32:59;;;;;;;19.95;14.00;;;2.70;99.90;;;;;;5047119;28;20189;-51
2021/12/21 06:35:25;;;;;;;22.10;13.67;;;2.70;99.90;;;;;;5047871;28;20194;-52
2021/12/21 06:37:51;;;;;;;21.63;13.80;;;2.70;99.90;;;;;;5044890;28;20187;-53
2021/12/21 06:40:17;;;;;;;19.37;13.27;;;2.60;99.90;;;;;;5046732;28;20209;-50
2021/12/21 06:42:45;;;;;;;19.65;13.52;;;2.60;99.90;;;;;;5049710;28;20456;-48
2021/12/21 06:45:24;;;;;;;17.88;12.98;;;2.60;99.90;;;;;;5059583;28;20267;-48
2021/12/21 06:53:18;;;;;;;20.30;14.20;;;2.50;99.90;;;;;;5047195;28;20181;-50
2021/12/21 06:55:44;;;;;;;21.17;14.20;;;2.50;99.90;;;;;;5028084;28;20190;-50
2021/12/21 06:58:10;;;;;;;21.40;13.63;;;2.50;99.90;;;;;;5045156;28;20214;-53
2021/12/21 07:00:35;;;;;;;21.07;13.50;;;2.50;99.90;;;;;;5045170;28;20218;-50
2021/12/21 07:03:01;;;;;;;22.17;15.20;;;2.50;99.90;;;;;;5057556;28;20308;-51
2021/12/21 07:05:27;;;;;;;21.00;13.83;;;2.50;99.90;;;;;;5047621;28;20201;-53
2021/12/21 07:07:53;;;;;;;20.17;13.30;;;2.50;99.90;;;;;;5047222;28;20202;-52
2021/12/21 07:10:24;;;;;;;21.17;14.13;;;2.50;99.90;;;;;;5037586;28;20193;-54
2021/12/21 07:20:28;;;;;;;22.33;14.95;;;2.40;99.90;;;;;;5060344;28;20189;-53
2021/12/21 07:22:55;;;;;;;21.37;14.83;;;2.40;99.90;;;;;;5034790;28;20189;-53
2021/12/21 07:25:21;;;;;;;20.52;14.55;;;2.50;99.90;;;;;;5032604;28;20182;-52
2021/12/21 07:27:47;;;;;;;25.40;15.63;;;2.50;99.90;;;;;;5052219;28;20228;-54
2021/12/21 07:30:12;;;;;;;20.87;13.70;;;2.40;99.90;;;;;;5054859;28;20437;-53
2021/12/21 07:32:38;;;;;;;21.47;14.83;;;2.40;99.90;;;;;;5049283;28;20291;-54
2021/12/21 07:35:04;;;;;;;17.07;13.00;;;2.40;99.90;;;;;;5053373;28;20179;-53
2021/12/21 07:37:30;;;;;;;16.85;12.55;;;2.40;99.90;;;;;;5062172;28;20189;-52
2021/12/21 07:39:55;;;;;;;18.10;12.87;;;2.40;99.90;;;;;;5057323;28;20207;-53
2021/12/21 07:42:21;;;;;;;19.73;14.33;;;2.40;99.90;;;;;;5051117;28;20491;-54
2021/12/21 07:44:48;;;;;;;19.73;13.27;;;2.40;99.90;;;;;;5043742;28;20182;-52
2021/12/21 07:47:14;;;;;;;22.15;14.23;;;2.40;99.90;;;;;;5050611;28;20452;-51
2021/12/21 07:49:40;;;;;;;20.33;13.70;;;2.30;99.90;;;;;;5046659;28;20182;-55
2021/12/21 07:52:07;;;;;;;18.93;13.47;;;2.30;99.90;;;;;;5051773;28;20237;-53
2021/12/21 07:54:34;;;;;;;19.73;14.18;;;2.40;99.90;;;;;;5056917;28;20714;-48
2021/12/21 07:56:59;;;;;;;20.40;13.10;;;2.40;99.90;;;;;;5038998;28;20226;-51
2021/12/21 07:59:25;;;;;;;21.37;13.17;;;2.50;99.90;;;;;;5047330;28;20206;-53
2021/12/21 08:01:52;;;;;;;25.70;15.40;;;2.50;99.90;;;;;;5060878;28;20178;-52
2021/12/21 08:04:17;;;;;;;19.00;13.77;;;2.60;99.90;;;;;;5048449;28;20441;-51
2021/12/21 08:06:46;;;;;;;22.13;14.50;;;2.60;99.90;;;;;;5066466;28;20188;-51
2021/12/21 08:09:12;;;;;;;21.25;14.82;;;2.70;99.90;;;;;;5055981;28;20189;-54
2021/12/21 08:14:06;;;;;;;19.75;13.38;;;2.60;99.90;;;;;;5050840;28;20185;-53
2021/12/21 08:16:32;;;;;;;22.13;13.70;;;2.60;99.90;;;;;;5063308;28;20186;-50
2021/12/21 08:18:58;;;;;;;21.60;14.30;;;2.70;99.90;;;;;;5055712;28;20687;-55
2021/12/21 08:21:25;;;;;;;20.27;14.03;;;2.70;99.90;;;;;;5052789;28;20573;-50
2021/12/21 08:23:51;;;;;;;21.45;15.15;;;2.80;99.90;;;;;;5056700;28;20190;-50
2021/12/21 08:26:17;;;;;;;20.38;14.15;;;2.70;99.90;;;;;;5054383;28;20198;-50
2021/12/21 08:28:42;;;;;;;18.67;13.70;;;2.70;99.90;;;;;;5049082;28;20193;-51
2021/12/21 08:31:11;;;;;;;27.00;15.87;;;2.70;99.90;;;;;;5053001;28;20547;-54
2021/12/21 08:33:38;;;;;;;24.27;16.42;;;2.70;99.90;;;;;;5049019;28;20174;-52
2021/12/21 08:36:05;;;;;;;26.17;17.13;;;2.70;99.90;;;;;;5049256;28;20205;-54
2021/12/21 08:38:32;;;;;;;25.80;16.90;;;2.70;99.90;;;;;;5048890;28;20573;-54
2021/12/21 08:40:59;;;;;;;25.60;16.58;;;2.60;99.90;;;;;;5047842;28;20204;-53
2021/12/21 08:43:28;;;;;;;30.30;18.45;;;2.50;99.90;;;;;;5045018;28;20187;-54
2021/12/21 08:45:56;;;;;;;25.58;17.02;;;2.50;99.90;;;;;;5049117;28;20645;-52
2021/12/21 08:48:22;;;;;;;23.13;16.17;;;2.60;99.90;;;;;;5047560;28;20197;-55
2021/12/21 08:50:50;;;;;;;26.95;16.73;;;2.70;99.90;;;;;;5048733;28;20284;-51
2021/12/21 08:53:16;;;;;;;24.67;17.58;;;2.70;99.90;;;;;;5052814;28;20183;-53
2021/12/21 08:55:43;;;;;;;26.05;17.40;;;2.70;99.90;;;;;;5050158;28;20182;-52
2021/12/21 08:58:10;;;;;;;33.92;17.45;;;2.80;99.90;;;;;;5030330;28;20193;-51
2021/12/21 09:00:36;;;;;;;26.55;16.70;;;2.70;99.90;;;;;;5049802;28;20186;-50
2021/12/21 09:03:02;;;;;;;29.15;18.60;;;2.70;99.90;;;;;;5048570;28;20256;-54
2021/12/21 09:05:30;;;;;;;26.75;18.25;;;2.70;99.90;;;;;;5048223;28;20670;-54
2021/12/21 09:07:57;;;;;;;25.95;17.35;;;2.70;99.90;;;;;;5048266;28;20606;-52
2021/12/21 09:10:24;;;;;;;29.58;19.02;;;2.60;99.90;;;;;;5047807;28;20225;-52
2021/12/21 09:12:50;;;;;;;29.75;18.42;;;2.60;99.90;;;;;;5050781;28;20293;-53
2021/12/21 09:15:18;;;;;;;25.17;17.20;;;2.60;99.90;;;;;;5047941;28;20281;-53
2021/12/21 09:17:44;;;;;;;30.55;18.60;;;2.70;99.90;;;;;;5048158;28;20226;-51
2021/12/21 09:20:13;;;;;;;31.63;19.13;;;2.70;99.90;;;;;;5055264;28;20179;-54
2021/12/21 09:22:39;;;;;;;29.38;18.83;;;2.70;99.90;;;;;;5049763;28;20429;-50
2021/12/21 09:25:05;;;;;;;32.45;19.25;;;2.70;99.90;;;;;;5031772;28;20543;-53
2021/12/21 09:27:31;;;;;;;29.60;18.33;;;2.70;99.90;;;;;;5058867;28;20308;-49
2021/12/21 09:29:57;;;;;;;27.63;17.67;;;2.80;99.90;;;;;;5058210;28;20276;-52
2021/12/21 09:32:22;;;;;;;28.43;17.43;;;2.80;99.90;;;;;;5041532;28;20717;-53
2021/12/21 09:34:48;;;;;;;24.63;16.83;;;2.80;99.90;;;;;;5058247;28;20189;-53
2021/12/21 09:37:17;;;;;;;24.57;15.50;;;2.80;99.90;;;;;;5055776;28;20194;-55
2021/12/21 09:39:51;;;;;;;23.67;13.70;;;2.80;99.90;;;;;;5047726;28;20183;-51
2021/12/21 09:42:20;;;;;;;23.77;14.95;;;2.80;99.90;;;;;;5053434;28;20178;-48
2021/12/21 09:44:46;;;;;;;19.60;13.50;;;2.90;99.90;;;;;;5052651;28;20190;-54
2021/12/21 09:47:13;;;;;;;19.02;12.07;;;2.90;99.90;;;;;;5057097;28;20212;-51
2021/12/21 09:49:40;;;;;;;24.27;14.85;;;2.90;99.90;;;;;;5053942;28;20231;-52
2021/12/21 09:52:07;;;;;;;21.27;13.60;;;2.80;99.90;;;;;;5055792;28;20202;-53
2021/12/21 09:54:34;;;;;;;22.88;15.00;;;2.70;99.90;;;;;;5051982;28;20207;-48
2021/12/21 09:57:00;;;;;;;22.95;14.30;;;2.70;99.90;;;;;;5056234;28;20178;-52
2021/12/21 09:59:26;;;;;;;26.07;14.27;;;2.70;99.90;;;;;;5054272;28;20644;-54
2021/12/21 10:01:55;;;;;;;22.35;13.95;;;2.60;99.90;;;;;;5062091;28;20196;-51
2021/12/21 10:04:21;;;;;;;21.40;12.57;;;2.60;99.90;;;;;;5054004;28;21013;-54
2021/12/21 10:06:49;;;;;;;23.93;13.97;;;2.60;99.90;;;;;;5058853;28;20249;-54
2021/12/21 10:09:18;;;;;;;22.15;13.73;;;2.60;99.90;;;;;;5057984;28;20436;-51
2021/12/21 10:11:47;;;;;;;23.02;14.75;;;2.60;99.90;;;;;;5054505;28;20202;-54
2021/12/21 10:14:15;;;;;;;20.85;13.85;;;2.60;99.90;;;;;;5055884;28;20193;-51
2021/12/21 10:16:41;;;;;;;19.08;12.30;;;2.60;99.90;;;;;;5058943;28;20173;-53
2021/12/21 10:19:07;;;;;;;19.52;12.55;;;2.70;99.90;;;;;;5061834;28;20186;-52
2021/12/21 10:21:44;;;;;;;17.20;11.73;;;2.70;99.90;;;;;;5051430;28;20212;-51
2021/12/21 10:24:20;;;;;;;20.40;12.93;;;2.70;99.90;;;;;;5048653;28;20261;-53
2021/12/21 10:26:46;;;;;;;18.13;11.65;;;2.70;99.90;;;;;;5056417;28;20879;-54
2021/12/21 10:29:15;;;;;;;15.33;11.50;;;2.70;99.90;;;;;;5056159;28;20203;-52
2021/12/21 10:31:42;;;;;;;17.52;11.90;;;2.70;99.90;;;;;;5047422;28;20209;-49
2021/12/21 10:34:13;;;;;;;15.23;11.25;;;2.80;99.90;;;;;;5050838;28;20182;-55
2021/12/21 10:36:49;;;;;;;18.85;12.55;;;2.70;99.90;;;;;;5052319;28;20222;-52
2021/12/21 10:39:23;;;;;;;18.33;11.35;;;2.70;99.90;;;;;;5054621;28;20201;-53
2021/12/21 10:41:51;;;;;;;17.33;11.32;;;2.60;99.90;;;;;;5061325;28;20252;-50
2021/12/21 10:44:19;;;;;;;14.40;10.82;;;2.70;99.90;;;;;;5056747;28;21110;-52
2021/12/21 10:46:53;;;;;;;16.83;11.25;;;2.70;99.90;;;;;;5052000;28;20236;-57
2021/12/21 10:49:25;;;;;;;19.52;11.65;;;2.70;99.90;;;;;;5054643;28;20206;-51
2021/12/21 10:52:00;;;;;;;18.60;12.05;;;2.80;99.90;;;;;;5039886;28;20571;-62
2021/12/21 10:54:41;;;;;;;20.55;12.40;;;2.80;99.90;;;;;;5061262;28;20183;-61
2021/12/21 10:57:15;;;;;;;15.55;11.50;;;2.90;99.90;;;;;;5042619;28;20177;-56
2021/12/21 10:59:43;;;;;;;17.27;10.95;;;2.90;99.90;;;;;;5059220;28;20859;-64
2021/12/21 11:02:11;;;;;;;17.20;11.15;;;2.90;99.90;;;;;;5033717;28;20273;-63
2021/12/21 11:04:38;;;;;;;20.65;11.15;;;2.90;99.90;;;;;;5058512;28;20193;-64
2021/12/21 11:07:29;;;;;;;15.90;10.13;;;2.90;99.90;;;;;;5059076;28;20179;-64
2021/12/21 11:09:59;;;;;;;14.98;10.15;;;2.90;99.90;;;;;;5066844;28;20178;-64
2021/12/21 11:12:27;;;;;;;14.02;9.75;;;3.00;99.90;;;;;;5041933;28;20195;-64
2021/12/21 11:14:55;;;;;;;14.02;10.05;;;3.00;99.90;;;;;;5035549;28;20183;-62
2021/12/21 11:17:21;;;;;;;17.55;10.25;;;3.10;99.90;;;;;;5035014;28;20229;-64
2021/12/21 11:19:50;;;;;;;13.30;9.85;;;3.10;99.90;;;;;;5031418;28;21533;-55
2021/12/21 11:22:16;;;;;;;15.18;10.45;;;3.10;99.90;;;;;;5038005;28;20186;-65
2021/12/21 11:24:44;;;;;;;14.13;10.20;;;3.10;99.90;;;;;;5036478;28;20626;-64
2021/12/21 11:27:11;;;;;;;16.83;10.60;;;3.10;99.90;;;;;;5040502;28;20212;-61
2021/12/21 11:29:39;;;;;;;15.88;9.57;;;3.20;99.90;;;;;;5018015;28;20182;-66
2021/12/21 11:32:06;;;;;;;14.05;10.32;;;3.20;99.90;;;;;;5035705;28;20214;-65
2021/12/21 11:34:36;;;;;;;12.90;9.48;;;3.20;99.90;;;;;;5048841;28;20193;-60
2021/12/21 11:37:20;;;;;;;15.23;10.52;;;3.30;99.90;;;;;;5039293;28;20182;-61
2021/12/21 11:39:47;;;;;;;15.23;10.30;;;3.40;99.90;;;;;;5043734;28;20505;-64
2021/12/21 11:42:34;;;;;;;15.25;10.98;;;3.40;99.90;;;;;;5057434;28;20221;-61
2021/12/21 11:45:23;;;;;;;13.07;9.45;;;3.40;99.90;;;;;;5054670;28;20240;-64
2021/12/21 11:47:54;;;;;;;13.98;9.48;;;3.50;99.90;;;;;;5039843;28;20194;-63
2021/12/21 11:50:20;;;;;;;12.77;9.15;;;3.40;99.90;;;;;;5047355;28;20189;-62
2021/12/21 11:52:52;;;;;;;16.83;9.70;;;3.50;99.90;;;;;;5056444;28;20205;-62
2021/12/21 11:55:21;;;;;;;13.75;10.35;;;3.40;99.90;;;;;;5054592;28;20667;-60
2021/12/21 11:57:49;;;;;;;14.25;9.52;;;3.50;99.90;;;;;;5064035;28;20178;-62
2021/12/21 12:00:19;;;;;;;11.70;9.13;;;3.50;99.90;;;;;;5050472;28;20190;-62
2021/12/21 12:02:46;;;;;;;10.55;8.82;;;3.50;99.90;;;;;;5062855;28;20186;-63
2021/12/21 12:05:25;;;;;;;13.57;9.60;;;3.60;99.90;;;;;;5054907;28;20173;-62
2021/12/21 12:08:07;;;;;;;13.00;10.20;;;3.50;99.90;;;;;;5065563;28;20178;-62
2021/12/21 12:10:37;;;;;;;12.35;8.75;;;3.50;99.90;;;;;;5054290;28;20229;-65
2021/12/21 12:13:15;;;;;;;15.70;9.57;;;3.40;99.90;;;;;;5062798;28;20207;-62
2021/12/21 12:15:46;;;;;;;19.95;9.80;;;3.50;99.90;;;;;;5062765;28;20257;-62
2021/12/21 12:18:32;;;;;;;13.80;10.13;;;3.50;99.90;;;;;;5070991;28;20694;-62
2021/12/21 12:20:58;;;;;;;12.82;9.50;;;3.50;99.90;;;;;;5077708;28;20181;-58
2021/12/21 12:23:24;;;;;;;9.20;7.90;;;3.60;99.90;;;;;;5077633;28;20174;-63
2021/12/21 12:25:57;;;;;;;12.30;8.60;;;3.60;99.90;;;;;;5082179;28;20180;-65
2021/12/21 12:28:32;;;;;;;14.77;9.68;;;3.70;99.90;;;;;;5079113;28;20523;-67
2021/12/21 12:30:58;;;;;;;13.20;8.60;;;3.60;99.90;;;;;;5075907;28;20235;-64
2021/12/21 12:33:24;;;;;;;11.80;9.10;;;3.60;99.90;;;;;;5071708;28;20178;-65
2021/12/21 12:35:49;;;;;;;12.33;9.10;;;3.60;99.90;;;;;;5068943;28;20231;-65
2021/12/21 12:38:19;;;;;;;11.20;8.33;;;3.60;99.90;;;;;;5068815;28;20182;-65
2021/12/21 12:40:54;;;;;;;11.05;7.63;;;3.70;99.90;;;;;;5068616;28;20269;-65
2021/12/21 12:43:23;;;;;;;12.80;8.35;;;3.80;99.90;;;;;;5068214;28;20181;-62
2021/12/21 12:45:51;;;;;;;9.73;6.90;;;3.80;99.90;;;;;;5069538;28;20532;-67
2021/12/21 12:48:21;;;;;;;9.45;6.63;;;3.70;99.90;;;;;;5070517;28;20186;-61
2021/12/21 12:50:47;;;;;;;11.48;7.80;;;3.60;99.90;;;;;;5049665;28;20178;-62
2021/12/21 12:53:13;;;;;;;10.50;8.00;;;3.60;99.90;;;;;;5070712;28;20252;-55
2021/12/21 12:55:58;;;;;;;10.20;7.57;;;3.60;99.90;;;;;;5072681;28;20237;-64
2021/12/21 12:58:26;;;;;;;10.18;8.02;;;3.60;99.90;;;;;;5068717;28;20420;-63
2021/12/21 13:01:00;;;;;;;10.73;7.70;;;3.60;99.90;;;;;;5072861;28;20194;-64
2021/12/21 13:03:42;;;;;;;11.73;8.18;;;3.60;99.90;;;;;;5069649;28;20191;-64
2021/12/21 13:06:14;;;;;;;10.93;8.45;;;3.50;99.90;;;;;;5067138;28;20199;-65
2021/12/21 13:08:42;;;;;;;13.20;8.77;;;3.40;99.90;;;;;;5068548;28;20205;-64
2021/12/21 13:11:09;;;;;;;12.45;9.18;;;3.40;99.90;;;;;;5069807;28;20202;-64
2021/12/21 13:13:41;;;;;;;11.57;8.40;;;3.30;99.90;;;;;;5070186;28;20232;-64
2021/12/21 13:16:11;;;;;;;12.70;7.90;;;3.30;99.90;;;;;;5072331;28;20178;-64
2021/12/21 13:18:47;;;;;;;11.60;8.75;;;3.30;99.90;;;;;;5050264;28;20308;-63
2021/12/21 13:21:25;;;;;;;11.65;8.55;;;3.30;99.90;;;;;;5052314;28;20192;-64
2021/12/21 13:23:59;;;;;;;16.42;9.20;;;3.30;99.90;;;;;;5068560;28;20639;-64
2021/12/21 13:26:44;;;;;;;13.45;9.70;;;3.30;99.90;;;;;;5067996;28;20181;-65
2021/12/21 13:29:14;;;;;;;12.02;9.13;;;3.20;99.90;;;;;;5075407;28;20197;-62
2021/12/21 13:31:40;;;;;;;16.35;9.30;;;3.20;99.90;;;;;;5075325;28;20295;-62
2021/12/21 13:34:07;;;;;;;12.40;9.13;;;3.20;99.90;;;;;;5074233;28;20211;-62
2021/12/21 13:36:38;;;;;;;11.25;9.35;;;3.10;99.90;;;;;;5078225;28;20215;-62
2021/12/21 13:39:25;;;;;;;13.95;10.40;;;3.10;99.90;;;;;;5068260;28;20513;-61
2021/12/21 13:41:56;;;;;;;12.38;9.10;;;3.10;99.90;;;;;;5082597;28;20174;-61
2021/12/21 13:44:29;;;;;;;13.18;9.65;;;3.20;99.90;;;;;;5072900;28;20173;-62
2021/12/21 13:46:58;;;;;;;14.93;10.15;;;3.20;99.90;;;;;;5075681;28;20893;-62